»·PEaware :: AAL2355 KDFW-KOKC

AAL2355 :: KDFW-KOKC

FLIGHT INFORMATION

Flight Status: Arrived
Operator:
American Airlines
More flights by this operator :: More flights under this callsign
Pilot: Drew Leevy (13237)
Aircraft: BOEING 737-800
(B738)
More flights by this aircraft type
Origin: KDFW Dallas-Ft Worth Intl
United States
Destination: KOKC Will Rogers World
United States
More flights between these airports :: More routes between these airports
Route: 18L BLECO7 ZEMMA TSDEL2 35L
File this flight plan on PilotEdge
Remarks:
Altitude:
(Current/Filed)
30,000ft
Speed:
(Current/Filed)
436kts
Departed: 28-Mar-17 09:13 PM
Arrived: 28-Mar-17 10:07 PM
Distance/Time
Traveled:
152nm/0:54
Distance/Time
To Go:
Arrived

Flight Plot

Page will automatically refresh every two minutes.

Flight plan parsing failed; only flown route is shown


Map Options




Map Legend


Flown Route
Filed Route
Departure Airport
Arrival Airport
Navaid (VOR, NDB)
Fix

Horizontal Profiles

Position Reports

Time Latitude Longitude Heading Altitude Ground
Speed
28-Mar-17 21:03 32.900150 -97.043562 169 615ft 0kts
28-Mar-17 21:04 32.900460 -97.043627 169 615ft 2kts
28-Mar-17 21:05 32.900843 -97.043707 169 615ft 0kts
28-Mar-17 21:06 32.900810 -97.044883 282 615ft 22kts
28-Mar-17 21:07 32.904376 -97.047550 359 615ft 26kts
28-Mar-17 21:08 32.910734 -97.047857 354 615ft 19kts
28-Mar-17 21:09 32.914899 -97.050521 248 615ft 14kts
28-Mar-17 21:10 32.914587 -97.050710 179 615ft 0kts
28-Mar-17 21:11 32.914587 -97.050710 179 615ft 0kts
28-Mar-17 21:12 32.914587 -97.050710 179 615ft 0kts
28-Mar-17 21:13 32.914587 -97.050710 179 615ft 0kts
28-Mar-17 21:14 32.904690 -97.050748 177 616ft 135kts
28-Mar-17 21:15 32.868025 -97.052191 180 2998ft 168kts
28-Mar-17 21:16 32.811157 -97.067370 192 5887ft 224kts
28-Mar-17 21:17 32.766645 -97.118776 248 9453ft 269kts
28-Mar-17 21:18 32.776000 -97.231765 290 12407ft 347kts
28-Mar-17 21:19 32.846576 -97.286293 350 14742ft 397kts
28-Mar-17 21:20 32.957991 -97.269762 350 17662ft 408kts
28-Mar-17 21:21 33.068876 -97.250243 20 20919ft 407kts
28-Mar-17 21:22 33.191307 -97.202933 15 21738ft 376kts
28-Mar-17 21:23 33.281802 -97.170109 15 21765ft 433kts
28-Mar-17 21:24 33.398460 -97.127961 15 21759ft 439kts
28-Mar-17 21:25 33.517707 -97.099517 3 21769ft 437kts
28-Mar-17 21:26 33.635328 -97.085397 3 21770ft 437kts
28-Mar-17 21:27 33.756489 -97.070202 3 21772ft 438kts
28-Mar-17 21:28 33.877949 -97.054812 3 21773ft 438kts
28-Mar-17 21:29 33.999017 -97.039410 3 21769ft 437kts
28-Mar-17 21:30 34.116430 -97.024433 3 21765ft 439kts
28-Mar-17 21:31 34.237771 -97.008842 3 21767ft 439kts
28-Mar-17 21:32 34.358896 -96.994870 355 21765ft 435kts
28-Mar-17 21:33 34.469336 -97.042483 325 21767ft 420kts
28-Mar-17 21:34 34.571679 -97.109408 326 20602ft 415kts
28-Mar-17 21:35 34.673130 -97.174751 326 18805ft 411kts
28-Mar-17 21:36 34.773835 -97.239567 326 17005ft 408kts
28-Mar-17 21:37 34.870102 -97.310531 322 15202ft 401kts
28-Mar-17 21:38 34.939673 -97.402230 298 14782ft 345kts
28-Mar-17 21:39 34.986349 -97.499782 288 14368ft 336kts
28-Mar-17 21:40 35.026946 -97.603340 288 12803ft 341kts
28-Mar-17 21:41 35.089349 -97.692450 318 11215ft 368kts
28-Mar-17 21:42 35.148421 -97.792427 267 9706ft 380kts
28-Mar-17 21:43 35.091806 -97.861606 168 9347ft 296kts
28-Mar-17 21:44 35.022424 -97.818249 154 9043ft 265kts
28-Mar-17 21:45 34.957901 -97.787407 169 8735ft 237kts
28-Mar-17 21:46 34.908636 -97.751162 99 8440ft 244kts
28-Mar-17 21:47 34.968224 -97.699381 26 8181ft 295kts
28-Mar-17 21:48 35.042681 -97.658112 29 7643ft 291kts
28-Mar-17 21:49 35.116390 -97.617335 29 6588ft 290kts
28-Mar-17 21:50 35.191182 -97.591611 356 5629ft 300kts
28-Mar-17 21:51 35.274123 -97.613326 355 4487ft 281kts
28-Mar-17 21:52 35.323500 -97.650087 254 6962ft 214kts
28-Mar-17 21:53 35.268590 -97.679376 182 7812ft 245kts
28-Mar-17 21:54 35.210809 -97.684327 181 7818ft 184kts
28-Mar-17 21:55 35.160182 -97.668439 161 7839ft 198kts
28-Mar-17 21:56 35.106364 -97.650728 165 7716ft 194kts
28-Mar-17 21:57 35.054359 -97.647770 182 7851ft 194kts
28-Mar-17 21:58 35.001894 -97.653448 182 7208ft 189kts
28-Mar-17 21:59 34.952869 -97.651597 136 6143ft 180kts
28-Mar-17 22:00 34.987699 -97.610836 6 5194ft 242kts
28-Mar-17 22:01 35.053728 -97.609167 5 4197ft 233kts
28-Mar-17 22:02 35.117299 -97.608126 5 3857ft 235kts
28-Mar-17 22:03 35.182228 -97.607383 3 3379ft 230kts
28-Mar-17 22:04 35.241633 -97.606567 7 2752ft 175kts
28-Mar-17 22:05 35.290528 -97.605459 4 2857ft 186kts
28-Mar-17 22:06 35.337801 -97.605745 3 2108ft 137kts
28-Mar-17 22:07 35.375124 -97.605699 1 1408ft 129kts
28-Mar-17 22:08 35.392306 -97.605450 62 1303ft 11kts
28-Mar-17 22:09 35.392352 -97.600126 88 1303ft 19kts
28-Mar-17 22:10 35.393949 -97.598452 359 1303ft 6kts
28-Mar-17 22:11 35.394472 -97.598453 357 1303ft 0kts
28-Mar-17 22:12 35.394472 -97.598453 357 1303ft 0kts

Navigation Log

Ident Type
Flight plan parsing failed, navigation log unavailable